sensor_id;sensor_type;location;lat;lon;timestamp;temperature;humidity
16271;DHT22;8243;49.048;8.396;2023-07-08T00:00:11;21.80;8.90
16271;DHT22;8243;49.048;8.396;2023-07-08T00:02:37;21.80;9.20
16271;DHT22;8243;49.048;8.396;2023-07-08T00:05:03;21.70;11.50
16271;DHT22;8243;49.048;8.396;2023-07-08T00:07:30;21.70;10.50
16271;DHT22;8243;49.048;8.396;2023-07-08T00:09:55;21.60;12.40
16271;DHT22;8243;49.048;8.396;2023-07-08T00:12:21;21.30;13.20
16271;DHT22;8243;49.048;8.396;2023-07-08T00:14:46;21.30;12.70
16271;DHT22;8243;49.048;8.396;2023-07-08T00:17:12;21.30;13.00
16271;DHT22;8243;49.048;8.396;2023-07-08T00:19:41;21.20;12.30
16271;DHT22;8243;49.048;8.396;2023-07-08T00:22:12;21.20;12.40
16271;DHT22;8243;49.048;8.396;2023-07-08T00:24:40;21.10;14.20
16271;DHT22;8243;49.048;8.396;2023-07-08T00:27:09;21.00;14.10
16271;DHT22;8243;49.048;8.396;2023-07-08T00:29:36;20.90;14.50
16271;DHT22;8243;49.048;8.396;2023-07-08T00:32:12;20.80;14.70
16271;DHT22;8243;49.048;8.396;2023-07-08T00:34:38;20.80;14.60
16271;DHT22;8243;49.048;8.396;2023-07-08T00:37:04;20.70;15.40
16271;DHT22;8243;49.048;8.396;2023-07-08T00:39:32;20.70;15.70
16271;DHT22;8243;49.048;8.396;2023-07-08T00:42:01;20.60;15.50
16271;DHT22;8243;49.048;8.396;2023-07-08T00:44:32;20.60;15.30
16271;DHT22;8243;49.048;8.396;2023-07-08T00:47:08;20.60;15.30
16271;DHT22;8243;49.048;8.396;2023-07-08T00:49:47;20.60;15.50
16271;DHT22;8243;49.048;8.396;2023-07-08T00:52:34;20.60;16.90
16271;DHT22;8243;49.048;8.396;2023-07-08T00:55:04;20.50;17.80
16271;DHT22;8243;49.048;8.396;2023-07-08T00:57:36;20.30;18.00
16271;DHT22;8243;49.048;8.396;2023-07-08T01:00:04;20.20;18.80
16271;DHT22;8243;49.048;8.396;2023-07-08T01:02:41;20.10;18.40
16271;DHT22;8243;49.048;8.396;2023-07-08T01:05:14;20.10;17.00
16271;DHT22;8243;49.048;8.396;2023-07-08T01:07:44;20.10;16.90
16271;DHT22;8243;49.048;8.396;2023-07-08T01:10:31;20.10;16.70
16271;DHT22;8243;49.048;8.396;2023-07-08T01:13:00;20.10;17.60
16271;DHT22;8243;49.048;8.396;2023-07-08T01:15:32;20.00;18.60
16271;DHT22;8243;49.048;8.396;2023-07-08T01:18:00;19.90;19.80
16271;DHT22;8243;49.048;8.396;2023-07-08T01:20:26;19.90;20.90
16271;DHT22;8243;49.048;8.396;2023-07-08T01:22:52;19.80;21.40
16271;DHT22;8243;49.048;8.396;2023-07-08T01:25:18;19.80;21.40
16271;DHT22;8243;49.048;8.396;2023-07-08T01:27:46;19.80;21.40
16271;DHT22;8243;49.048;8.396;2023-07-08T01:30:14;19.70;22.40
16271;DHT22;8243;49.048;8.396;2023-07-08T01:32:45;19.70;22.20
16271;DHT22;8243;49.048;8.396;2023-07-08T01:35:12;19.60;22.00
16271;DHT22;8243;49.048;8.396;2023-07-08T01:37:42;19.60;22.00
16271;DHT22;8243;49.048;8.396;2023-07-08T01:42:55;19.50;22.30
16271;DHT22;8243;49.048;8.396;2023-07-08T01:45:24;19.40;22.70
16271;DHT22;8243;49.048;8.396;2023-07-08T01:48:03;19.30;23.80
16271;DHT22;8243;49.048;8.396;2023-07-08T01:50:32;19.30;25.10
16271;DHT22;8243;49.048;8.396;2023-07-08T01:53:04;19.20;26.10
16271;DHT22;8243;49.048;8.396;2023-07-08T01:55:32;19.00;28.00
16271;DHT22;8243;49.048;8.396;2023-07-08T01:57:58;18.90;27.90
16271;DHT22;8243;49.048;8.396;2023-07-08T02:00:25;18.80;27.00
16271;DHT22;8243;49.048;8.396;2023-07-08T02:02:51;18.80;24.80
16271;DHT22;8243;49.048;8.396;2023-07-08T02:05:17;18.90;23.20
16271;DHT22;8243;49.048;8.396;2023-07-08T02:07:43;19.10;21.50
16271;DHT22;8243;49.048;8.396;2023-07-08T02:10:10;19.40;19.80
16271;DHT22;8243;49.048;8.396;2023-07-08T02:12:36;19.50;18.70
16271;DHT22;8243;49.048;8.396;2023-07-08T02:15:04;19.60;18.20
16271;DHT22;8243;49.048;8.396;2023-07-08T02:17:30;19.60;17.80
16271;DHT22;8243;49.048;8.396;2023-07-08T02:19:56;19.70;16.60
16271;DHT22;8243;49.048;8.396;2023-07-08T02:22:22;19.80;16.30
16271;DHT22;8243;49.048;8.396;2023-07-08T02:24:48;19.90;15.40
16271;DHT22;8243;49.048;8.396;2023-07-08T02:27:14;19.90;15.90
16271;DHT22;8243;49.048;8.396;2023-07-08T02:29:40;19.90;15.50
16271;DHT22;8243;49.048;8.396;2023-07-08T02:32:08;19.90;16.00
16271;DHT22;8243;49.048;8.396;2023-07-08T02:34:35;19.90;15.10
16271;DHT22;8243;49.048;8.396;2023-07-08T02:37:01;19.80;15.40
16271;DHT22;8243;49.048;8.396;2023-07-08T02:39:28;19.80;15.00
16271;DHT22;8243;49.048;8.396;2023-07-08T02:41:54;19.80;14.90
16271;DHT22;8243;49.048;8.396;2023-07-08T02:44:19;19.90;14.30
16271;DHT22;8243;49.048;8.396;2023-07-08T02:46:45;20.00;13.80
16271;DHT22;8243;49.048;8.396;2023-07-08T02:49:11;20.00;13.50
16271;DHT22;8243;49.048;8.396;2023-07-08T02:51:37;20.00;13.50
16271;DHT22;8243;49.048;8.396;2023-07-08T02:54:03;20.00;13.30
16271;DHT22;8243;49.048;8.396;2023-07-08T02:56:29;20.10;13.30
16271;DHT22;8243;49.048;8.396;2023-07-08T02:58:55;20.00;13.10
16271;DHT22;8243;49.048;8.396;2023-07-08T03:01:21;20.00;12.90
16271;DHT22;8243;49.048;8.396;2023-07-08T03:03:47;19.90;13.00
16271;DHT22;8243;49.048;8.396;2023-07-08T03:06:14;19.70;13.10
16271;DHT22;8243;49.048;8.396;2023-07-08T03:08:39;19.70;13.50
16271;DHT22;8243;49.048;8.396;2023-07-08T03:11:07;19.60;13.60
16271;DHT22;8243;49.048;8.396;2023-07-08T03:13:34;19.60;13.60
16271;DHT22;8243;49.048;8.396;2023-07-08T03:16:01;19.50;13.70
16271;DHT22;8243;49.048;8.396;2023-07-08T03:18:28;19.50;14.90
16271;DHT22;8243;49.048;8.396;2023-07-08T03:20:56;19.50;15.10
16271;DHT22;8243;49.048;8.396;2023-07-08T03:23:23;19.40;16.50
16271;DHT22;8243;49.048;8.396;2023-07-08T03:25:49;19.30;17.20
16271;DHT22;8243;49.048;8.396;2023-07-08T03:28:16;19.30;18.20
16271;DHT22;8243;49.048;8.396;2023-07-08T03:30:42;19.20;20.00
16271;DHT22;8243;49.048;8.396;2023-07-08T03:33:09;19.10;21.40
16271;DHT22;8243;49.048;8.396;2023-07-08T03:35:35;18.90;22.30
16271;DHT22;8243;49.048;8.396;2023-07-08T03:38:01;18.90;22.10
16271;DHT22;8243;49.048;8.396;2023-07-08T03:40:29;18.90;22.70
16271;DHT22;8243;49.048;8.396;2023-07-08T03:42:55;18.80;24.00
16271;DHT22;8243;49.048;8.396;2023-07-08T03:45:25;18.70;24.90
16271;DHT22;8243;49.048;8.396;2023-07-08T03:47:51;18.60;24.90
16271;DHT22;8243;49.048;8.396;2023-07-08T03:50:19;18.60;24.20
16271;DHT22;8243;49.048;8.396;2023-07-08T03:52:51;18.60;24.50
16271;DHT22;8243;49.048;8.396;2023-07-08T03:55:17;18.60;24.00
16271;DHT22;8243;49.048;8.396;2023-07-08T03:57:48;18.50;25.00
16271;DHT22;8243;49.048;8.396;2023-07-08T04:00:14;18.60;24.40
16271;DHT22;8243;49.048;8.396;2023-07-08T04:02:44;18.60;24.20
16271;DHT22;8243;49.048;8.396;2023-07-08T04:05:18;18.70;22.50
16271;DHT22;8243;49.048;8.396;2023-07-08T04:07:45;19.10;21.80
16271;DHT22;8243;49.048;8.396;2023-07-08T04:10:12;19.50;22.90
16271;DHT22;8243;49.048;8.396;2023-07-08T04:12:38;19.60;22.90
16271;DHT22;8243;49.048;8.396;2023-07-08T04:15:07;19.80;22.70
16271;DHT22;8243;49.048;8.396;2023-07-08T04:17:37;19.90;21.90
16271;DHT22;8243;49.048;8.396;2023-07-08T04:20:07;20.20;21.50
16271;DHT22;8243;49.048;8.396;2023-07-08T04:22:34;20.50;20.60
16271;DHT22;8243;49.048;8.396;2023-07-08T04:25:00;20.70;20.10
16271;DHT22;8243;49.048;8.396;2023-07-08T04:27:26;21.20;19.40
16271;DHT22;8243;49.048;8.396;2023-07-08T04:29:52;22.10;16.70
16271;DHT22;8243;49.048;8.396;2023-07-08T04:32:18;22.90;16.10
16271;DHT22;8243;49.048;8.396;2023-07-08T04:34:44;23.40;14.80
16271;DHT22;8243;49.048;8.396;2023-07-08T04:37:11;23.60;13.50
16271;DHT22;8243;49.048;8.396;2023-07-08T04:39:37;23.80;12.00
16271;DHT22;8243;49.048;8.396;2023-07-08T04:42:04;23.80;11.60
16271;DHT22;8243;49.048;8.396;2023-07-08T04:44:30;24.30;11.80
16271;DHT22;8243;49.048;8.396;2023-07-08T04:46:58;24.70;9.00
16271;DHT22;8243;49.048;8.396;2023-07-08T04:49:24;25.00;9.00
16271;DHT22;8243;49.048;8.396;2023-07-08T04:51:53;25.40;7.70
16271;DHT22;8243;49.048;8.396;2023-07-08T04:54:19;25.70;7.70
16271;DHT22;8243;49.048;8.396;2023-07-08T04:56:47;25.90;6.40
16271;DHT22;8243;49.048;8.396;2023-07-08T04:59:17;25.50;6.60
16271;DHT22;8243;49.048;8.396;2023-07-08T05:01:43;25.50;6.90
16271;DHT22;8243;49.048;8.396;2023-07-08T05:04:14;25.30;7.10
16271;DHT22;8243;49.048;8.396;2023-07-08T05:06:41;25.10;7.80
16271;DHT22;8243;49.048;8.396;2023-07-08T05:09:08;24.40;8.40
16271;DHT22;8243;49.048;8.396;2023-07-08T05:11:34;24.00;9.70
16271;DHT22;8243;49.048;8.396;2023-07-08T05:14:01;23.80;10.10
16271;DHT22;8243;49.048;8.396;2023-07-08T05:16:28;23.30;10.90
16271;DHT22;8243;49.048;8.396;2023-07-08T05:18:54;23.80;11.10
16271;DHT22;8243;49.048;8.396;2023-07-08T05:21:20;24.10;10.50
16271;DHT22;8243;49.048;8.396;2023-07-08T05:23:47;25.10;9.00
16271;DHT22;8243;49.048;8.396;2023-07-08T05:26:16;26.50;6.70
16271;DHT22;8243;49.048;8.396;2023-07-08T05:28:42;27.40;5.00
16271;DHT22;8243;49.048;8.396;2023-07-08T05:31:11;27.50;4.20
16271;DHT22;8243;49.048;8.396;2023-07-08T05:33:37;28.10;5.40
16271;DHT22;8243;49.048;8.396;2023-07-08T05:36:02;29.00;3.90
16271;DHT22;8243;49.048;8.396;2023-07-08T05:38:29;29.90;2.10
16271;DHT22;8243;49.048;8.396;2023-07-08T05:40:57;30.70;1.20
16271;DHT22;8243;49.048;8.396;2023-07-08T05:43:23;30.40;1.00
16271;DHT22;8243;49.048;8.396;2023-07-08T05:45:49;30.90;1.00
16271;DHT22;8243;49.048;8.396;2023-07-08T05:48:15;31.40;1.00
16271;DHT22;8243;49.048;8.396;2023-07-08T05:50:41;31.50;1.00
16271;DHT22;8243;49.048;8.396;2023-07-08T05:53:11;31.70;1.00
16271;DHT22;8243;49.048;8.396;2023-07-08T05:55:39;32.10;1.00
16271;DHT22;8243;49.048;8.396;2023-07-08T05:58:07;32.40;1.00
16271;DHT22;8243;49.048;8.396;2023-07-08T06:00:34;32.00;1.00
16271;DHT22;8243;49.048;8.396;2023-07-08T06:03:01;31.60;1.00
16271;DHT22;8243;49.048;8.396;2023-07-08T06:05:26;31.50;1.00
16271;DHT22;8243;49.048;8.396;2023-07-08T06:07:52;30.70;1.00
16271;DHT22;8243;49.048;8.396;2023-07-08T06:10:18;28.80;3.00
16271;DHT22;8243;49.048;8.396;2023-07-08T06:12:44;27.40;5.20
16271;DHT22;8243;49.048;8.396;2023-07-08T06:15:10;26.00;8.20
16271;DHT22;8243;49.048;8.396;2023-07-08T06:17:37;25.60;9.20
16271;DHT22;8243;49.048;8.396;2023-07-08T06:20:05;26.10;8.60
16271;DHT22;8243;49.048;8.396;2023-07-08T06:22:31;26.70;7.70
16271;DHT22;8243;49.048;8.396;2023-07-08T06:24:57;27.70;6.70
16271;DHT22;8243;49.048;8.396;2023-07-08T06:27:23;28.10;5.00
16271;DHT22;8243;49.048;8.396;2023-07-08T06:29:49;27.80;4.80
16271;DHT22;8243;49.048;8.396;2023-07-08T06:32:14;27.50;5.10
16271;DHT22;8243;49.048;8.396;2023-07-08T06:34:40;26.40;6.60
16271;DHT22;8243;49.048;8.396;2023-07-08T06:37:06;25.90;7.60
16271;DHT22;8243;49.048;8.396;2023-07-08T06:39:31;26.20;8.10
16271;DHT22;8243;49.048;8.396;2023-07-08T06:41:57;26.00;7.90
16271;DHT22;8243;49.048;8.396;2023-07-08T06:44:23;26.00;8.90
16271;DHT22;8243;49.048;8.396;2023-07-08T06:46:48;26.00;8.50
16271;DHT22;8243;49.048;8.396;2023-07-08T06:49:14;25.90;9.40
16271;DHT22;8243;49.048;8.396;2023-07-08T06:51:40;25.80;9.20
16271;DHT22;8243;49.048;8.396;2023-07-08T06:54:05;26.20;9.70
16271;DHT22;8243;49.048;8.396;2023-07-08T06:56:38;26.30;9.50
16271;DHT22;8243;49.048;8.396;2023-07-08T06:59:04;26.60;9.00
16271;DHT22;8243;49.048;8.396;2023-07-08T07:01:30;26.50;10.20
16271;DHT22;8243;49.048;8.396;2023-07-08T07:03:55;26.80;9.60
16271;DHT22;8243;49.048;8.396;2023-07-08T07:06:21;26.90;9.70
16271;DHT22;8243;49.048;8.396;2023-07-08T07:08:53;27.30;9.30
16271;DHT22;8243;49.048;8.396;2023-07-08T07:11:19;27.20;10.00
16271;DHT22;8243;49.048;8.396;2023-07-08T07:13:45;27.40;9.90
16271;DHT22;8243;49.048;8.396;2023-07-08T07:16:12;27.30;9.90
16271;DHT22;8243;49.048;8.396;2023-07-08T07:18:37;27.90;10.50
16271;DHT22;8243;49.048;8.396;2023-07-08T07:21:03;28.60;8.70
16271;DHT22;8243;49.048;8.396;2023-07-08T07:23:29;28.60;8.60
16271;DHT22;8243;49.048;8.396;2023-07-08T07:25:55;28.70;8.60
16271;DHT22;8243;49.048;8.396;2023-07-08T07:28:21;29.20;8.50
16271;DHT22;8243;49.048;8.396;2023-07-08T07:30:47;29.60;7.90
16271;DHT22;8243;49.048;8.396;2023-07-08T07:33:20;29.30;8.50
16271;DHT22;8243;49.048;8.396;2023-07-08T07:35:46;29.60;8.50
16271;DHT22;8243;49.048;8.396;2023-07-08T07:38:14;29.70;8.40
16271;DHT22;8243;49.048;8.396;2023-07-08T07:40:40;29.80;8.30
16271;DHT22;8243;49.048;8.396;2023-07-08T07:43:06;30.20;7.40
16271;DHT22;8243;49.048;8.396;2023-07-08T07:45:32;30.30;6.50
16271;DHT22;8243;49.048;8.396;2023-07-08T07:47:58;30.20;6.50
16271;DHT22;8243;49.048;8.396;2023-07-08T07:50:23;30.50;7.10
16271;DHT22;8243;49.048;8.396;2023-07-08T07:52:49;30.60;6.40
16271;DHT22;8243;49.048;8.396;2023-07-08T07:55:15;31.60;5.20
16271;DHT22;8243;49.048;8.396;2023-07-08T07:57:41;32.20;3.70
16271;DHT22;8243;49.048;8.396;2023-07-08T08:00:12;32.60;3.20
16271;DHT22;8243;49.048;8.396;2023-07-08T08:02:40;33.20;2.30
16271;DHT22;8243;49.048;8.396;2023-07-08T08:05:06;33.10;1.30
16271;DHT22;8243;49.048;8.396;2023-07-08T08:07:32;33.70;1.00
16271;DHT22;8243;49.048;8.396;2023-07-08T08:09:58;33.70;1.00
16271;DHT22;8243;49.048;8.396;2023-07-08T08:12:33;33.80;1.00
16271;DHT22;8243;49.048;8.396;2023-07-08T08:14:59;34.20;1.00
16271;DHT22;8243;49.048;8.396;2023-07-08T08:17:24;34.70;1.00
16271;DHT22;8243;49.048;8.396;2023-07-08T08:19:50;35.30;1.00
16271;DHT22;8243;49.048;8.396;2023-07-08T08:22:16;35.60;1.00
16271;DHT22;8243;49.048;8.396;2023-07-08T08:24:41;35.80;1.00
16271;DHT22;8243;49.048;8.396;2023-07-08T08:27:07;35.90;1.00
16271;DHT22;8243;49.048;8.396;2023-07-08T08:29:33;35.30;1.00
16271;DHT22;8243;49.048;8.396;2023-07-08T08:31:59;35.10;1.00
16271;DHT22;8243;49.048;8.396;2023-07-08T08:34:25;35.00;1.00
16271;DHT22;8243;49.048;8.396;2023-07-08T08:36:51;34.80;1.00
16271;DHT22;8243;49.048;8.396;2023-07-08T08:39:21;34.80;1.00
16271;DHT22;8243;49.048;8.396;2023-07-08T08:41:47;34.80;1.00
16271;DHT22;8243;49.048;8.396;2023-07-08T08:44:22;35.00;1.00
16271;DHT22;8243;49.048;8.396;2023-07-08T08:47:34;35.20;1.00
16271;DHT22;8243;49.048;8.396;2023-07-08T08:52:46;35.70;1.00
16271;DHT22;8243;49.048;8.396;2023-07-08T08:55:13;35.60;1.00
16271;DHT22;8243;49.048;8.396;2023-07-08T09:03:15;36.30;1.00
16271;DHT22;8243;49.048;8.396;2023-07-08T09:05:46;36.30;1.00
16271;DHT22;8243;49.048;8.396;2023-07-08T09:08:32;36.30;1.00
16271;DHT22;8243;49.048;8.396;2023-07-08T09:14:03;35.60;1.00
16271;DHT22;8243;49.048;8.396;2023-07-08T09:16:50;36.30;1.00
16271;DHT22;8243;49.048;8.396;2023-07-08T09:19:21;36.00;1.00
16271;DHT22;8243;49.048;8.396;2023-07-08T09:22:14;35.70;1.00
16271;DHT22;8243;49.048;8.396;2023-07-08T09:24:54;35.00;1.00
16271;DHT22;8243;49.048;8.396;2023-07-08T09:27:22;35.10;1.00
16271;DHT22;8243;49.048;8.396;2023-07-08T09:29:51;35.20;1.00
16271;DHT22;8243;49.048;8.396;2023-07-08T09:32:20;35.00;1.00
16271;DHT22;8243;49.048;8.396;2023-07-08T09:35:01;35.50;1.00
16271;DHT22;8243;49.048;8.396;2023-07-08T09:37:30;35.60;1.00
16271;DHT22;8243;49.048;8.396;2023-07-08T09:39:58;35.50;1.00
16271;DHT22;8243;49.048;8.396;2023-07-08T09:42:29;35.00;1.00
16271;DHT22;8243;49.048;8.396;2023-07-08T09:45:10;35.10;1.00
16271;DHT22;8243;49.048;8.396;2023-07-08T09:47:37;35.30;1.00
16271;DHT22;8243;49.048;8.396;2023-07-08T09:50:28;35.30;1.00
16271;DHT22;8243;49.048;8.396;2023-07-08T09:53:00;34.50;1.00
16271;DHT22;8243;49.048;8.396;2023-07-08T09:55:27;34.30;1.00
16271;DHT22;8243;49.048;8.396;2023-07-08T09:57:56;34.50;1.00
16271;DHT22;8243;49.048;8.396;2023-07-08T10:00:30;34.40;1.00
16271;DHT22;8243;49.048;8.396;2023-07-08T10:03:11;34.50;1.00
16271;DHT22;8243;49.048;8.396;2023-07-08T10:05:41;34.90;1.00
16271;DHT22;8243;49.048;8.396;2023-07-08T10:08:18;34.80;1.00
16271;DHT22;8243;49.048;8.396;2023-07-08T10:10:51;34.80;1.00
16271;DHT22;8243;49.048;8.396;2023-07-08T10:13:23;34.70;1.00
16271;DHT22;8243;49.048;8.396;2023-07-08T10:15:59;34.70;1.00
16271;DHT22;8243;49.048;8.396;2023-07-08T10:18:29;34.80;1.00
16271;DHT22;8243;49.048;8.396;2023-07-08T10:23:37;34.40;1.00
16271;DHT22;8243;49.048;8.396;2023-07-08T10:26:22;33.80;1.00
16271;DHT22;8243;49.048;8.396;2023-07-08T10:45:00;33.20;1.00
16271;DHT22;8243;49.048;8.396;2023-07-08T10:50:30;33.60;1.00
16271;DHT22;8243;49.048;8.396;2023-07-08T10:56:07;33.40;1.00
16271;DHT22;8243;49.048;8.396;2023-07-08T11:10:40;33.30;1.00
16271;DHT22;8243;49.048;8.396;2023-07-08T11:13:18;33.50;1.00
16271;DHT22;8243;49.048;8.396;2023-07-08T11:15:54;33.50;1.00
16271;DHT22;8243;49.048;8.396;2023-07-08T11:21:04;33.40;1.00
16271;DHT22;8243;49.048;8.396;2023-07-08T11:24:00;33.10;1.00
16271;DHT22;8243;49.048;8.396;2023-07-08T11:26:42;33.10;1.00
16271;DHT22;8243;49.048;8.396;2023-07-08T11:29:24;33.40;1.00
16271;DHT22;8243;49.048;8.396;2023-07-08T11:31:51;33.20;1.00
16271;DHT22;8243;49.048;8.396;2023-07-08T11:34:18;33.20;1.00
16271;DHT22;8243;49.048;8.396;2023-07-08T11:36:46;33.10;1.00
16271;DHT22;8243;49.048;8.396;2023-07-08T11:39:38;33.40;1.00
16271;DHT22;8243;49.048;8.396;2023-07-08T11:44:54;33.30;1.00
16271;DHT22;8243;49.048;8.396;2023-07-08T11:47:40;33.50;1.00
16271;DHT22;8243;49.048;8.396;2023-07-08T11:50:35;33.50;1.00
16271;DHT22;8243;49.048;8.396;2023-07-08T11:53:11;33.70;1.00
16271;DHT22;8243;49.048;8.396;2023-07-08T11:56:00;33.70;1.00
16271;DHT22;8243;49.048;8.396;2023-07-08T11:58:31;33.70;1.00
16271;DHT22;8243;49.048;8.396;2023-07-08T12:03:37;33.90;1.00
16271;DHT22;8243;49.048;8.396;2023-07-08T12:06:35;33.80;1.00
16271;DHT22;8243;49.048;8.396;2023-07-08T12:08:48;33.50;1.00
16271;DHT22;8243;49.048;8.396;2023-07-08T12:11:14;33.10;1.00
16271;DHT22;8243;49.048;8.396;2023-07-08T12:13:40;32.80;1.00
16271;DHT22;8243;49.048;8.396;2023-07-08T12:16:11;33.30;1.00
16271;DHT22;8243;49.048;8.396;2023-07-08T12:18:39;33.80;1.00
16271;DHT22;8243;49.048;8.396;2023-07-08T12:21:12;33.80;1.00
16271;DHT22;8243;49.048;8.396;2023-07-08T12:23:45;33.80;1.00
16271;DHT22;8243;49.048;8.396;2023-07-08T12:26:11;34.10;1.00
16271;DHT22;8243;49.048;8.396;2023-07-08T12:28:38;34.30;1.00
16271;DHT22;8243;49.048;8.396;2023-07-08T12:31:20;34.40;1.00
16271;DHT22;8243;49.048;8.396;2023-07-08T12:33:46;34.00;1.00
16271;DHT22;8243;49.048;8.396;2023-07-08T12:36:23;34.10;1.00
16271;DHT22;8243;49.048;8.396;2023-07-08T12:38:55;34.20;1.00
16271;DHT22;8243;49.048;8.396;2023-07-08T12:41:30;34.60;1.00
16271;DHT22;8243;49.048;8.396;2023-07-08T12:43:57;34.30;1.00
16271;DHT22;8243;49.048;8.396;2023-07-08T12:46:25;34.40;1.00
16271;DHT22;8243;49.048;8.396;2023-07-08T12:48:50;34.30;1.00
16271;DHT22;8243;49.048;8.396;2023-07-08T12:51:19;34.40;1.00
16271;DHT22;8243;49.048;8.396;2023-07-08T12:53:49;33.20;1.00
16271;DHT22;8243;49.048;8.396;2023-07-08T12:56:17;32.70;1.00
16271;DHT22;8243;49.048;8.396;2023-07-08T12:58:46;33.00;1.00
16271;DHT22;8243;49.048;8.396;2023-07-08T13:01:20;33.70;1.00
16271;DHT22;8243;49.048;8.396;2023-07-08T13:03:49;34.10;1.00
16271;DHT22;8243;49.048;8.396;2023-07-08T13:06:20;34.40;1.00
16271;DHT22;8243;49.048;8.396;2023-07-08T13:08:47;34.80;1.00
16271;DHT22;8243;49.048;8.396;2023-07-08T13:11:15;34.70;1.00
16271;DHT22;8243;49.048;8.396;2023-07-08T13:16:15;34.00;1.00
16271;DHT22;8243;49.048;8.396;2023-07-08T13:18:41;34.40;1.00
16271;DHT22;8243;49.048;8.396;2023-07-08T13:21:15;34.80;1.00
16271;DHT22;8243;49.048;8.396;2023-07-08T13:23:42;35.10;1.00
16271;DHT22;8243;49.048;8.396;2023-07-08T13:26:15;35.00;1.00
16271;DHT22;8243;49.048;8.396;2023-07-08T13:28:41;35.00;1.00
16271;DHT22;8243;49.048;8.396;2023-07-08T13:31:20;34.80;1.00
16271;DHT22;8243;49.048;8.396;2023-07-08T13:33:53;34.70;1.00
16271;DHT22;8243;49.048;8.396;2023-07-08T13:36:22;34.60;1.00
16271;DHT22;8243;49.048;8.396;2023-07-08T13:38:48;34.00;1.00
16271;DHT22;8243;49.048;8.396;2023-07-08T13:41:23;34.20;1.00
16271;DHT22;8243;49.048;8.396;2023-07-08T13:43:49;34.50;1.00
16271;DHT22;8243;49.048;8.396;2023-07-08T13:46:40;34.80;1.00
16271;DHT22;8243;49.048;8.396;2023-07-08T13:51:44;33.60;1.00
16271;DHT22;8243;49.048;8.396;2023-07-08T13:56:49;34.40;1.00
16271;DHT22;8243;49.048;8.396;2023-07-08T13:59:22;34.30;1.00
16271;DHT22;8243;49.048;8.396;2023-07-08T14:01:51;34.40;1.00
16271;DHT22;8243;49.048;8.396;2023-07-08T14:04:21;34.60;1.00
16271;DHT22;8243;49.048;8.396;2023-07-08T14:06:47;34.50;1.00
16271;DHT22;8243;49.048;8.396;2023-07-08T14:09:16;34.60;1.00
16271;DHT22;8243;49.048;8.396;2023-07-08T14:11:44;34.70;1.00
16271;DHT22;8243;49.048;8.396;2023-07-08T14:14:13;34.70;1.00
16271;DHT22;8243;49.048;8.396;2023-07-08T14:16:45;34.70;1.00
16271;DHT22;8243;49.048;8.396;2023-07-08T14:19:15;34.90;1.00
16271;DHT22;8243;49.048;8.396;2023-07-08T14:21:42;34.90;1.00
16271;DHT22;8243;49.048;8.396;2023-07-08T14:24:13;34.80;1.00
16271;DHT22;8243;49.048;8.396;2023-07-08T14:26:46;34.80;1.00
16271;DHT22;8243;49.048;8.396;2023-07-08T14:29:11;34.70;1.00
16271;DHT22;8243;49.048;8.396;2023-07-08T14:31:40;35.10;1.00
16271;DHT22;8243;49.048;8.396;2023-07-08T14:34:08;35.30;1.00
16271;DHT22;8243;49.048;8.396;2023-07-08T14:36:34;35.40;1.00
16271;DHT22;8243;49.048;8.396;2023-07-08T14:39:01;35.40;1.00
16271;DHT22;8243;49.048;8.396;2023-07-08T14:41:34;35.10;1.00
16271;DHT22;8243;49.048;8.396;2023-07-08T14:44:00;35.50;1.00
16271;DHT22;8243;49.048;8.396;2023-07-08T14:46:25;35.60;1.00
16271;DHT22;8243;49.048;8.396;2023-07-08T14:48:51;35.40;1.00
16271;DHT22;8243;49.048;8.396;2023-07-08T14:51:16;35.30;1.00
16271;DHT22;8243;49.048;8.396;2023-07-08T14:53:43;35.20;1.00
16271;DHT22;8243;49.048;8.396;2023-07-08T14:56:14;35.10;1.00
16271;DHT22;8243;49.048;8.396;2023-07-08T14:58:44;34.90;1.00
16271;DHT22;8243;49.048;8.396;2023-07-08T15:01:18;34.70;1.00
16271;DHT22;8243;49.048;8.396;2023-07-08T15:03:45;34.80;1.00
16271;DHT22;8243;49.048;8.396;2023-07-08T15:06:11;35.00;1.00
16271;DHT22;8243;49.048;8.396;2023-07-08T15:08:37;35.00;1.00
16271;DHT22;8243;49.048;8.396;2023-07-08T15:11:02;35.20;1.00
16271;DHT22;8243;49.048;8.396;2023-07-08T15:13:32;35.50;1.00
16271;DHT22;8243;49.048;8.396;2023-07-08T15:16:00;35.30;1.00
16271;DHT22;8243;49.048;8.396;2023-07-08T15:18:27;35.30;1.00
16271;DHT22;8243;49.048;8.396;2023-07-08T15:20:53;34.90;1.00
16271;DHT22;8243;49.048;8.396;2023-07-08T15:23:19;34.90;1.00
16271;DHT22;8243;49.048;8.396;2023-07-08T15:25:46;34.60;1.00
16271;DHT22;8243;49.048;8.396;2023-07-08T15:28:25;34.70;1.00
16271;DHT22;8243;49.048;8.396;2023-07-08T15:31:01;34.40;1.00
16271;DHT22;8243;49.048;8.396;2023-07-08T15:33:27;33.80;1.00
16271;DHT22;8243;49.048;8.396;2023-07-08T15:35:53;33.60;1.00
16271;DHT22;8243;49.048;8.396;2023-07-08T15:38:19;33.80;1.00
16271;DHT22;8243;49.048;8.396;2023-07-08T15:40:44;33.90;1.00
16271;DHT22;8243;49.048;8.396;2023-07-08T15:43:14;34.20;1.00
16271;DHT22;8243;49.048;8.396;2023-07-08T15:45:41;34.50;1.00
16271;DHT22;8243;49.048;8.396;2023-07-08T15:48:17;34.40;1.00
16271;DHT22;8243;49.048;8.396;2023-07-08T15:50:44;34.60;1.00
16271;DHT22;8243;49.048;8.396;2023-07-08T15:53:10;34.80;1.00
16271;DHT22;8243;49.048;8.396;2023-07-08T15:55:42;35.00;1.00
16271;DHT22;8243;49.048;8.396;2023-07-08T15:58:27;35.10;1.00
16271;DHT22;8243;49.048;8.396;2023-07-08T16:00:55;35.00;1.00
16271;DHT22;8243;49.048;8.396;2023-07-08T16:03:26;34.70;1.00
16271;DHT22;8243;49.048;8.396;2023-07-08T16:05:53;34.60;1.00
16271;DHT22;8243;49.048;8.396;2023-07-08T16:08:21;34.30;1.00
16271;DHT22;8243;49.048;8.396;2023-07-08T16:11:00;34.10;1.00
16271;DHT22;8243;49.048;8.396;2023-07-08T16:13:32;34.20;1.00
16271;DHT22;8243;49.048;8.396;2023-07-08T16:15:59;34.40;1.00
16271;DHT22;8243;49.048;8.396;2023-07-08T16:18:25;34.60;1.00
16271;DHT22;8243;49.048;8.396;2023-07-08T16:20:51;34.30;1.00
16271;DHT22;8243;49.048;8.396;2023-07-08T16:23:16;34.00;1.00
16271;DHT22;8243;49.048;8.396;2023-07-08T16:25:47;34.30;1.00
16271;DHT22;8243;49.048;8.396;2023-07-08T16:30:51;34.60;1.00
16271;DHT22;8243;49.048;8.396;2023-07-08T16:33:16;34.70;1.00
16271;DHT22;8243;49.048;8.396;2023-07-08T16:35:42;34.70;1.00
16271;DHT22;8243;49.048;8.396;2023-07-08T16:38:08;34.70;1.00
16271;DHT22;8243;49.048;8.396;2023-07-08T16:40:34;34.30;1.00
16271;DHT22;8243;49.048;8.396;2023-07-08T16:43:01;34.10;1.00
16271;DHT22;8243;49.048;8.396;2023-07-08T16:45:26;34.00;1.00
16271;DHT22;8243;49.048;8.396;2023-07-08T16:47:53;34.00;1.00
16271;DHT22;8243;49.048;8.396;2023-07-08T16:50:22;34.10;1.00
16271;DHT22;8243;49.048;8.396;2023-07-08T16:52:51;34.00;1.00
16271;DHT22;8243;49.048;8.396;2023-07-08T16:55:21;34.10;1.00
16271;DHT22;8243;49.048;8.396;2023-07-08T16:57:47;34.20;1.00
16271;DHT22;8243;49.048;8.396;2023-07-08T17:00:23;34.20;1.00
16271;DHT22;8243;49.048;8.396;2023-07-08T17:02:49;34.40;1.00
16271;DHT22;8243;49.048;8.396;2023-07-08T17:05:29;34.40;1.00
16271;DHT22;8243;49.048;8.396;2023-07-08T17:07:55;34.30;1.00
16271;DHT22;8243;49.048;8.396;2023-07-08T17:10:21;34.30;1.00
16271;DHT22;8243;49.048;8.396;2023-07-08T17:12:47;34.20;1.00
16271;DHT22;8243;49.048;8.396;2023-07-08T17:15:14;34.10;1.00
16271;DHT22;8243;49.048;8.396;2023-07-08T17:17:51;34.10;1.00